Terminal Aerodrome Forecast
Issued by NWS

Home | Current Version | Previous Version | Graphics & Text | Print | Product List | Glossary On
Versions: 1 2 3 4 5 6 7 8 9 10 11 12 13 14 15 16 17 18 19
000
FTUS43 KABR 231700
TAFATY
TAF
KATY 231723Z 2318/2418 14028G38KT P6SM VCSH BKN080
     FM232300 15022G32KT P6SM VCSH OVC025
     FM240200 17010KT 5SM BR OVC010
     FM240900 27008KT P6SM SKC=

USA.gov is the U.S. government's official web portal to all federal, state and local government web resources and services.